Time;durP1;ratioP1;P1;durP2;ratioP2;P2;SDS_P1;SDS_P2;PMS_P1;PMS_P2;Temp;Humidity;BMP_temperature;BMP_pressure;BME280_temperature;BME280_humidity;BME280_pressure;Samples;Min_cycle;Max_cycle;Signal;HPM_P1;HPM_P2
2023/02/10 00:00:33;;;;;;;10.57;6.07;;;;;;;;;;5050454;28;20449;-69
2023/02/10 00:03:00;;;;;;;8.37;5.50;;;;;;;;;;5050915;28;20459;-69
2023/02/10 00:05:27;;;;;;;17.53;7.40;;;;;;;;;;5049870;28;20456;-68
2023/02/10 00:07:54;;;;;;;5.67;3.33;;;;;;;;;;5053427;28;20478;-68
2023/02/10 00:10:22;;;;;;;11.80;4.17;;;;;;;;;;5050717;28;20812;-68
2023/02/10 00:12:49;;;;;;;6.27;5.00;;;;;;;;;;5051022;28;20488;-68
2023/02/10 00:15:16;;;;;;;7.83;6.27;;;;;;;;;;5050885;28;20456;-69
2023/02/10 00:17:44;;;;;;;11.47;6.63;;;;;;;;;;5050385;28;20458;-68
2023/02/10 00:20:12;;;;;;;4.23;3.53;;;;;;;;;;5051149;28;20461;-69
2023/02/10 00:22:39;;;;;;;8.50;5.23;;;;;;;;;;5050452;28;20466;-69
2023/02/10 00:25:06;;;;;;;10.87;4.10;;;;;;;;;;5050875;28;20459;-69
2023/02/10 00:27:33;;;;;;;8.67;6.93;;;;;;;;;;5050093;28;20450;-69
2023/02/10 00:30:00;;;;;;;9.83;7.90;;;;;;;;;;5051110;28;20446;-69
2023/02/10 00:32:27;;;;;;;11.03;7.17;;;;;;;;;;5050199;28;20456;-69
2023/02/10 00:34:56;;;;;;;5.87;4.43;;;;;;;;;;5050595;28;20457;-69
2023/02/10 00:37:23;;;;;;;4.33;3.93;;;;;;;;;;5049928;28;20454;-67
2023/02/10 00:39:50;;;;;;;7.17;5.67;;;;;;;;;;5050585;28;20447;-69
2023/02/10 00:42:17;;;;;;;8.77;7.63;;;;;;;;;;5037330;28;20482;-69
2023/02/10 00:44:45;;;;;;;7.87;5.17;;;;;;;;;;5048830;28;20466;-68
2023/02/10 00:47:12;;;;;;;8.53;4.63;;;;;;;;;;5050704;28;20494;-68
2023/02/10 00:49:39;;;;;;;6.20;5.07;;;;;;;;;;5049291;28;20444;-68
2023/02/10 00:52:07;;;;;;;10.10;5.90;;;;;;;;;;5050755;28;20455;-69
2023/02/10 00:54:34;;;;;;;10.07;7.43;;;;;;;;;;5049687;28;20837;-68
2023/02/10 00:57:01;;;;;;;10.67;7.90;;;;;;;;;;5050617;28;20458;-69
2023/02/10 00:59:28;;;;;;;10.77;6.40;;;;;;;;;;5049621;28;20463;-68
2023/02/10 01:01:56;;;;;;;10.00;6.77;;;;;;;;;;5050359;28;20458;-68
2023/02/10 01:04:23;;;;;;;6.97;3.53;;;;;;;;;;5049598;28;20461;-67
2023/02/10 01:06:50;;;;;;;5.50;3.40;;;;;;;;;;5049771;28;20454;-68
2023/02/10 01:09:19;;;;;;;5.33;4.63;;;;;;;;;;5050479;28;20475;-68
2023/02/10 01:11:46;;;;;;;7.37;5.37;;;;;;;;;;5050750;28;20805;-68
2023/02/10 01:14:13;;;;;;;7.03;4.53;;;;;;;;;;5050393;28;20566;-68
2023/02/10 01:16:40;;;;;;;20.40;7.43;;;;;;;;;;5049015;28;20944;-68
2023/02/10 01:19:07;;;;;;;13.17;5.83;;;;;;;;;;5052535;28;20469;-68
2023/02/10 01:21:36;;;;;;;10.03;6.83;;;;;;;;;;5054117;28;20450;-69
2023/02/10 01:24:03;;;;;;;13.57;8.20;;;;;;;;;;5054408;28;20465;-68
2023/02/10 01:26:32;;;;;;;18.37;4.07;;;;;;;;;;5053575;28;20451;-68
2023/02/10 01:28:59;;;;;;;6.13;5.60;;;;;;;;;;5054336;28;20458;-69
2023/02/10 01:31:26;;;;;;;14.40;6.33;;;;;;;;;;5053498;28;20925;-68
2023/02/10 01:33:54;;;;;;;7.30;4.77;;;;;;;;;;5054069;28;20489;-69
2023/02/10 01:36:23;;;;;;;9.07;3.60;;;;;;;;;;5053203;28;20457;-67
2023/02/10 01:38:50;;;;;;;12.20;5.00;;;;;;;;;;5054039;28;20464;-68
2023/02/10 01:41:19;;;;;;;4.20;3.80;;;;;;;;;;5053685;28;20447;-68
2023/02/10 01:44:01;;;;;;;7.90;5.77;;;;;;;;;;5052630;28;20450;-68
2023/02/10 01:46:28;;;;;;;12.47;5.30;;;;;;;;;;5052242;28;20953;-68
2023/02/10 01:48:56;;;;;;;6.17;4.33;;;;;;;;;;5053859;28;20815;-67
2023/02/10 01:51:25;;;;;;;12.13;5.87;;;;;;;;;;5052997;28;20454;-66
2023/02/10 01:53:53;;;;;;;13.03;6.63;;;;;;;;;;5053519;28;20485;-68
2023/02/10 01:56:20;;;;;;;8.70;3.83;;;;;;;;;;5053260;28;20458;-67
2023/02/10 01:58:47;;;;;;;17.03;5.37;;;;;;;;;;5052395;28;20447;-68
2023/02/10 02:01:17;;;;;;;13.40;8.90;;;;;;;;;;5052612;28;20962;-67
2023/02/10 02:03:44;;;;;;;11.23;6.90;;;;;;;;;;5052332;28;20967;-67
2023/02/10 02:06:11;;;;;;;17.63;7.13;;;;;;;;;;5052733;28;20454;-68
2023/02/10 02:08:39;;;;;;;6.80;6.00;;;;;;;;;;5051992;28;20470;-67
2023/02/10 02:11:14;;;;;;;9.40;6.77;;;;;;;;;;5053748;28;20435;-67
2023/02/10 02:14:01;;;;;;;8.07;5.80;;;;;;;;;;5052391;28;20481;-67
2023/02/10 02:16:36;;;;;;;14.50;6.83;;;;;;;;;;5039813;28;20510;-67
2023/02/10 02:19:10;;;;;;;7.87;5.10;;;;;;;;;;5052936;28;20436;-69
2023/02/10 02:21:55;;;;;;;11.97;7.70;;;;;;;;;;5053001;28;20434;-68
2023/02/10 02:24:38;;;;;;;9.97;6.90;;;;;;;;;;5052554;28;20447;-67
2023/02/10 02:33:15;;;;;;;7.00;4.57;;;;;;;;;;5052639;28;20418;-68
2023/02/10 02:35:45;;;;;;;9.33;5.93;;;;;;;;;;5051545;28;20957;-67
2023/02/10 02:38:12;;;;;;;6.53;5.00;;;;;;;;;;5052765;28;20454;-67
2023/02/10 02:40:39;;;;;;;10.37;4.47;;;;;;;;;;5051254;28;20453;-67
2023/02/10 02:43:07;;;;;;;10.00;7.10;;;;;;;;;;5052324;28;20824;-68
2023/02/10 02:45:39;;;;;;;5.40;4.83;;;;;;;;;;5051419;28;20454;-68
2023/02/10 02:48:13;;;;;;;7.17;5.67;;;;;;;;;;5052172;28;20951;-67
2023/02/10 02:50:46;;;;;;;8.67;6.03;;;;;;;;;;5051157;28;20946;-67
2023/02/10 02:53:23;;;;;;;6.77;5.17;;;;;;;;;;5051724;28;20453;-67
2023/02/10 02:56:02;;;;;;;8.13;5.00;;;;;;;;;;5052008;28;20465;-67
2023/02/10 02:58:34;;;;;;;18.60;6.90;;;;;;;;;;5051244;28;20805;-67
2023/02/10 03:01:05;;;;;;;6.87;4.87;;;;;;;;;;5051663;28;20443;-69
2023/02/10 03:03:33;;;;;;;9.53;6.00;;;;;;;;;;5051046;28;20457;-67
2023/02/10 03:06:01;;;;;;;7.63;6.83;;;;;;;;;;5051481;28;20450;-69
2023/02/10 03:08:29;;;;;;;9.97;8.33;;;;;;;;;;5051707;28;20481;-69
2023/02/10 03:10:56;;;;;;;5.47;4.33;;;;;;;;;;5051844;28;20450;-67
2023/02/10 03:13:24;;;;;;;9.20;6.87;;;;;;;;;;5051546;28;20818;-67
2023/02/10 03:15:51;;;;;;;8.23;7.10;;;;;;;;;;5051829;28;20451;-69
2023/02/10 03:18:18;;;;;;;6.57;5.90;;;;;;;;;;5052215;28;20449;-67
2023/02/10 03:20:45;;;;;;;11.90;6.20;;;;;;;;;;5051251;28;20442;-69
2023/02/10 03:23:13;;;;;;;6.47;5.73;;;;;;;;;;5052076;28;20446;-69
2023/02/10 03:25:40;;;;;;;9.13;4.47;;;;;;;;;;5050868;28;20455;-68
2023/02/10 03:28:07;;;;;;;6.70;5.70;;;;;;;;;;5052103;28;20446;-69
2023/02/10 03:30:34;;;;;;;7.57;5.67;;;;;;;;;;5051745;28;20477;-67
2023/02/10 03:33:02;;;;;;;9.97;6.53;;;;;;;;;;5051756;28;21054;-67
2023/02/10 03:35:29;;;;;;;10.17;6.47;;;;;;;;;;5050804;28;20510;-67
2023/02/10 03:37:56;;;;;;;7.43;6.77;;;;;;;;;;5051461;28;20477;-67
2023/02/10 03:40:24;;;;;;;8.60;5.53;;;;;;;;;;5051332;28;20447;-66
2023/02/10 03:42:51;;;;;;;7.13;6.20;;;;;;;;;;5050621;28;20943;-67
2023/02/10 03:45:18;;;;;;;15.00;8.10;;;;;;;;;;5056839;28;20540;-68
2023/02/10 03:47:45;;;;;;;12.10;8.20;;;;;;;;;;5050367;28;20446;-67
2023/02/10 03:50:13;;;;;;;10.83;5.83;;;;;;;;;;5051181;28;20450;-68
2023/02/10 03:52:40;;;;;;;7.00;4.40;;;;;;;;;;5050422;28;20443;-67
2023/02/10 03:55:07;;;;;;;12.97;6.87;;;;;;;;;;5050600;28;20596;-67
2023/02/10 03:57:35;;;;;;;10.97;7.50;;;;;;;;;;5050574;28;20454;-67
2023/02/10 04:00:02;;;;;;;5.67;3.73;;;;;;;;;;5051158;28;20446;-67
2023/02/10 04:02:30;;;;;;;3.73;3.40;;;;;;;;;;5050602;28;20477;-67
2023/02/10 04:04:57;;;;;;;25.20;5.67;;;;;;;;;;5050758;28;20454;-67
2023/02/10 04:07:24;;;;;;;10.97;6.10;;;;;;;;;;5050408;28;20923;-66
2023/02/10 04:09:51;;;;;;;8.27;4.00;;;;;;;;;;5051372;28;20470;-67
2023/02/10 04:12:18;;;;;;;9.20;4.70;;;;;;;;;;5051348;28;20451;-67
2023/02/10 04:14:46;;;;;;;11.93;5.90;;;;;;;;;;5036910;28;20500;-67
2023/02/10 04:17:13;;;;;;;7.87;5.60;;;;;;;;;;5050809;28;20447;-67
2023/02/10 04:19:41;;;;;;;6.80;6.17;;;;;;;;;;5050625;28;20446;-68
2023/02/10 04:22:08;;;;;;;6.93;3.90;;;;;;;;;;5051216;28;20442;-68
2023/02/10 04:24:35;;;;;;;11.57;6.37;;;;;;;;;;5050329;28;20458;-68
2023/02/10 04:27:02;;;;;;;11.63;6.73;;;;;;;;;;5051123;28;20456;-69
2023/02/10 04:29:29;;;;;;;6.53;5.33;;;;;;;;;;5050055;28;20449;-67
2023/02/10 04:31:57;;;;;;;12.17;5.60;;;;;;;;;;5050923;28;20461;-67
2023/02/10 04:34:25;;;;;;;10.20;6.47;;;;;;;;;;5049887;28;21021;-68
2023/02/10 04:36:52;;;;;;;10.23;7.80;;;;;;;;;;5050736;28;20473;-67
2023/02/10 04:39:19;;;;;;;4.00;3.10;;;;;;;;;;5050769;28;20447;-67
2023/02/10 04:41:46;;;;;;;8.77;5.60;;;;;;;;;;5049551;28;20450;-67
2023/02/10 04:44:13;;;;;;;15.57;6.20;;;;;;;;;;5050190;28;20820;-67
2023/02/10 04:46:40;;;;;;;6.03;3.83;;;;;;;;;;5049307;28;20442;-68
2023/02/10 04:49:08;;;;;;;7.10;6.40;;;;;;;;;;5050240;28;20455;-69
2023/02/10 04:51:35;;;;;;;7.23;5.83;;;;;;;;;;5049737;28;20903;-67
2023/02/10 04:54:03;;;;;;;8.73;5.67;;;;;;;;;;5052348;28;21033;-67
2023/02/10 04:56:30;;;;;;;8.40;5.43;;;;;;;;;;5053313;28;20449;-69
2023/02/10 04:58:57;;;;;;;10.67;8.67;;;;;;;;;;5054456;28;20446;-69
2023/02/10 05:01:24;;;;;;;4.10;3.80;;;;;;;;;;5054087;28;20953;-67
2023/02/10 05:03:51;;;;;;;6.70;5.77;;;;;;;;;;5053953;28;20449;-68
2023/02/10 05:06:20;;;;;;;10.70;6.73;;;;;;;;;;5053398;28;20450;-67
2023/02/10 05:08:49;;;;;;;11.67;8.10;;;;;;;;;;5053762;28;20466;-68
2023/02/10 05:11:16;;;;;;;9.80;6.20;;;;;;;;;;5054599;28;20452;-67
2023/02/10 05:13:44;;;;;;;8.40;4.70;;;;;;;;;;5053612;28;20457;-67
2023/02/10 05:16:12;;;;;;;10.43;5.77;;;;;;;;;;5054246;28;20581;-67
2023/02/10 05:18:39;;;;;;;6.47;3.50;;;;;;;;;;5053861;28;20447;-66
2023/02/10 05:21:07;;;;;;;4.73;3.80;;;;;;;;;;5054485;28;20501;-67
2023/02/10 05:23:36;;;;;;;13.57;9.43;;;;;;;;;;5053621;28;20934;-67
2023/02/10 05:26:03;;;;;;;6.50;5.13;;;;;;;;;;5053693;28;20446;-67
2023/02/10 05:28:30;;;;;;;13.10;8.50;;;;;;;;;;5052965;28;20457;-66
2023/02/10 05:30:57;;;;;;;5.47;4.97;;;;;;;;;;5054247;28;21214;-67
2023/02/10 05:33:24;;;;;;;10.40;5.73;;;;;;;;;;5053348;28;20474;-67
2023/02/10 05:35:52;;;;;;;8.63;7.43;;;;;;;;;;5053279;28;20497;-67
2023/02/10 05:38:19;;;;;;;15.27;9.73;;;;;;;;;;5053401;28;20454;-67
2023/02/10 05:40:47;;;;;;;22.70;6.43;;;;;;;;;;5052766;28;20450;-67
2023/02/10 05:43:14;;;;;;;9.53;8.60;;;;;;;;;;5053672;28;20457;-67
2023/02/10 05:45:41;;;;;;;3.37;3.07;;;;;;;;;;5052290;28;20465;-67
2023/02/10 05:48:08;;;;;;;7.37;5.03;;;;;;;;;;5053600;28;20439;-67
2023/02/10 05:50:36;;;;;;;8.00;4.30;;;;;;;;;;5052836;28;20512;-67
2023/02/10 05:53:03;;;;;;;11.50;4.73;;;;;;;;;;5053146;28;20438;-67
2023/02/10 05:55:30;;;;;;;12.63;7.87;;;;;;;;;;5051922;28;20478;-66
2023/02/10 05:57:58;;;;;;;8.90;7.70;;;;;;;;;;5053479;28;20438;-67
2023/02/10 06:00:25;;;;;;;7.50;3.70;;;;;;;;;;5052852;28;20445;-67
2023/02/10 06:02:52;;;;;;;4.90;3.67;;;;;;;;;;5052670;28;20449;-66
2023/02/10 06:05:20;;;;;;;23.97;6.10;;;;;;;;;;5052412;28;20816;-67
2023/02/10 06:07:47;;;;;;;11.30;5.53;;;;;;;;;;5052284;28;20461;-67
2023/02/10 06:10:14;;;;;;;13.97;6.90;;;;;;;;;;5053690;28;20470;-67
2023/02/10 06:12:41;;;;;;;5.53;4.80;;;;;;;;;;5052397;28;20442;-69
2023/02/10 06:15:10;;;;;;;6.07;4.80;;;;;;;;;;5053206;28;20841;-67
2023/02/10 06:17:37;;;;;;;16.40;4.73;;;;;;;;;;5053034;28;20812;-67
2023/02/10 06:20:04;;;;;;;6.60;4.80;;;;;;;;;;5053644;28;20468;-66
2023/02/10 06:22:31;;;;;;;7.83;7.13;;;;;;;;;;5052447;28;20462;-69
2023/02/10 06:24:58;;;;;;;13.80;8.70;;;;;;;;;;5052953;28;20864;-67
2023/02/10 06:27:25;;;;;;;7.70;5.73;;;;;;;;;;5053328;28;20447;-67
2023/02/10 06:29:52;;;;;;;7.37;4.13;;;;;;;;;;5052594;28;20947;-69
2023/02/10 06:32:21;;;;;;;13.67;4.10;;;;;;;;;;5052475;28;20446;-68
2023/02/10 06:34:48;;;;;;;8.37;4.40;;;;;;;;;;5051390;28;20480;-68
2023/02/10 06:37:15;;;;;;;8.87;7.17;;;;;;;;;;5052275;28;20458;-68
2023/02/10 06:39:42;;;;;;;19.00;7.50;;;;;;;;;;5052039;28;20457;-67
2023/02/10 06:42:09;;;;;;;7.23;6.10;;;;;;;;;;5051880;28;20457;-68
2023/02/10 06:44:36;;;;;;;4.17;3.53;;;;;;;;;;5051630;28;20809;-68
2023/02/10 06:47:04;;;;;;;10.30;9.30;;;;;;;;;;5052433;28;20445;-68
2023/02/10 06:49:32;;;;;;;8.40;6.13;;;;;;;;;;5051793;28;20458;-67
2023/02/10 06:51:59;;;;;;;9.20;6.20;;;;;;;;;;5052010;28;20935;-68
2023/02/10 06:54:26;;;;;;;12.10;6.33;;;;;;;;;;5052026;28;20454;-67
2023/02/10 06:56:53;;;;;;;9.73;6.33;;;;;;;;;;5051454;28;20441;-68
2023/02/10 06:59:20;;;;;;;20.73;5.33;;;;;;;;;;5051725;28;20446;-67
2023/02/10 07:01:47;;;;;;;6.03;4.93;;;;;;;;;;5050775;28;20446;-67
2023/02/10 07:04:15;;;;;;;5.53;3.83;;;;;;;;;;5051012;28;20919;-67
2023/02/10 07:06:43;;;;;;;11.20;7.17;;;;;;;;;;5051421;28;20447;-68
2023/02/10 07:09:10;;;;;;;11.30;5.83;;;;;;;;;;5051109;28;20552;-71
2023/02/10 07:11:37;;;;;;;9.37;6.63;;;;;;;;;;5052137;28;20821;-70
2023/02/10 07:14:04;;;;;;;5.00;4.33;;;;;;;;;;5051471;28;20450;-70
2023/02/10 07:16:31;;;;;;;4.50;4.20;;;;;;;;;;5050598;28;20478;-67
2023/02/10 07:18:58;;;;;;;6.87;5.07;;;;;;;;;;5052322;28;20459;-68
2023/02/10 07:21:26;;;;;;;5.23;4.63;;;;;;;;;;5052257;28;20451;-68
2023/02/10 07:23:54;;;;;;;7.47;6.23;;;;;;;;;;5052213;28;20461;-71
2023/02/10 07:26:21;;;;;;;14.33;8.93;;;;;;;;;;5051986;28;20450;-70
2023/02/10 07:28:48;;;;;;;11.20;5.23;;;;;;;;;;5051535;28;20454;-73
2023/02/10 07:31:15;;;;;;;18.77;6.30;;;;;;;;;;5050738;28;20449;-72
2023/02/10 07:33:42;;;;;;;7.60;6.13;;;;;;;;;;5050911;28;20442;-75
2023/02/10 07:36:10;;;;;;;10.53;5.40;;;;;;;;;;5051179;28;20485;-68
2023/02/10 07:38:37;;;;;;;9.07;6.90;;;;;;;;;;5050842;28;20465;-68
2023/02/10 07:41:06;;;;;;;9.00;6.07;;;;;;;;;;5050316;28;20451;-74
2023/02/10 07:43:33;;;;;;;24.13;8.40;;;;;;;;;;5049993;28;20446;-72
2023/02/10 07:46:00;;;;;;;15.27;9.43;;;;;;;;;;5050123;28;20450;-72
2023/02/10 07:48:28;;;;;;;6.50;4.73;;;;;;;;;;5050024;28;20458;-69
2023/02/10 07:50:55;;;;;;;8.93;6.70;;;;;;;;;;5049572;28;20450;-73
2023/02/10 07:53:22;;;;;;;12.20;7.80;;;;;;;;;;5050737;28;20445;-72
2023/02/10 07:55:50;;;;;;;17.70;6.87;;;;;;;;;;5050182;28;20792;-73
2023/02/10 07:58:18;;;;;;;14.37;5.60;;;;;;;;;;5050711;28;20817;-73
2023/02/10 08:00:45;;;;;;;12.93;7.10;;;;;;;;;;5049687;28;20810;-74
2023/02/10 08:03:13;;;;;;;11.03;9.47;;;;;;;;;;5050429;28;20451;-73
2023/02/10 08:05:41;;;;;;;20.57;8.87;;;;;;;;;;5050478;28;20442;-74
2023/02/10 08:08:09;;;;;;;15.03;8.83;;;;;;;;;;5050074;28;20960;-73
2023/02/10 08:10:36;;;;;;;10.50;6.50;;;;;;;;;;5050017;28;20451;-73
2023/02/10 08:13:03;;;;;;;11.27;10.13;;;;;;;;;;5050910;28;20465;-74
2023/02/10 08:15:32;;;;;;;12.43;7.10;;;;;;;;;;5049867;28;20553;-75
2023/02/10 08:18:00;;;;;;;9.83;7.23;;;;;;;;;;5050723;28;20454;-74
2023/02/10 08:20:27;;;;;;;5.40;4.87;;;;;;;;;;5050019;28;20452;-70
2023/02/10 08:22:55;;;;;;;15.70;9.00;;;;;;;;;;5050616;28;20484;-73
2023/02/10 08:25:22;;;;;;;24.73;12.10;;;;;;;;;;5049383;28;20454;-73
2023/02/10 08:27:50;;;;;;;9.57;7.63;;;;;;;;;;5049432;28;20452;-74
2023/02/10 08:30:17;;;;;;;11.23;7.37;;;;;;;;;;5049491;28;20461;-75
2023/02/10 08:32:45;;;;;;;13.60;9.03;;;;;;;;;;5050200;28;20453;-75
2023/02/10 08:35:13;;;;;;;23.63;8.70;;;;;;;;;;5050741;28;20445;-75
2023/02/10 08:37:40;;;;;;;9.37;6.80;;;;;;;;;;5050223;28;20466;-72
2023/02/10 08:40:07;;;;;;;13.57;8.73;;;;;;;;;;5050408;28;20437;-75
2023/02/10 08:42:35;;;;;;;14.43;8.53;;;;;;;;;;5049697;28;20446;-76
2023/02/10 08:45:02;;;;;;;10.73;8.40;;;;;;;;;;5049990;28;20527;-74
2023/02/10 08:47:29;;;;;;;8.60;7.10;;;;;;;;;;5049518;28;20456;-67
2023/02/10 08:49:58;;;;;;;8.20;5.90;;;;;;;;;;5048686;28;20446;-75
2023/02/10 08:52:25;;;;;;;8.70;7.27;;;;;;;;;;5050046;28;20456;-74
2023/02/10 08:54:52;;;;;;;10.20;8.13;;;;;;;;;;5049040;28;20434;-75
2023/02/10 08:57:19;;;;;;;10.00;6.30;;;;;;;;;;5049593;28;20487;-74
2023/02/10 08:59:46;;;;;;;14.43;7.53;;;;;;;;;;5048561;28;20445;-74
2023/02/10 09:02:14;;;;;;;9.27;7.43;;;;;;;;;;5049583;28;20457;-74
2023/02/10 09:04:41;;;;;;;10.40;5.90;;;;;;;;;;5049123;28;20444;-73
2023/02/10 09:07:11;;;;;;;9.33;6.30;;;;;;;;;;5050274;28;20454;-71
2023/02/10 09:09:39;;;;;;;16.00;10.10;;;;;;;;;;5049459;28;20570;-71
2023/02/10 09:12:06;;;;;;;17.40;9.90;;;;;;;;;;5050735;28;20457;-74
2023/02/10 09:14:34;;;;;;;19.63;8.63;;;;;;;;;;5048619;28;20460;-74
2023/02/10 09:17:01;;;;;;;12.43;7.73;;;;;;;;;;5049835;28;20483;-76
2023/02/10 09:19:28;;;;;;;13.47;9.00;;;;;;;;;;5048546;28;20464;-67
2023/02/10 09:21:56;;;;;;;12.27;7.57;;;;;;;;;;5050090;28;20476;-75
2023/02/10 09:24:24;;;;;;;15.00;7.37;;;;;;;;;;5049837;28;20457;-74
2023/02/10 09:26:51;;;;;;;14.13;8.23;;;;;;;;;;5049165;28;20457;-74
2023/02/10 09:29:19;;;;;;;11.47;7.37;;;;;;;;;;5049255;28;20529;-75
2023/02/10 09:31:46;;;;;;;14.83;7.67;;;;;;;;;;5048810;28;20817;-75
2023/02/10 09:34:13;;;;;;;14.80;8.53;;;;;;;;;;5049273;28;20442;-74
2023/02/10 09:36:40;;;;;;;9.60;6.40;;;;;;;;;;5049435;28;20474;-74
2023/02/10 09:39:08;;;;;;;10.67;7.03;;;;;;;;;;5050412;28;20450;-74
2023/02/10 09:41:46;;;;;;;10.80;8.47;;;;;;;;;;5052380;28;20450;-74
2023/02/10 09:44:16;;;;;;;15.30;8.13;;;;;;;;;;5049773;28;20434;-74
2023/02/10 09:46:48;;;;;;;13.37;8.57;;;;;;;;;;5051793;28;20460;-69
2023/02/10 09:49:22;;;;;;;11.20;7.60;;;;;;;;;;5052643;28;20953;-75
2023/02/10 09:51:55;;;;;;;13.97;7.73;;;;;;;;;;5050606;28;20440;-75
2023/02/10 09:54:22;;;;;;;13.83;8.43;;;;;;;;;;5053487;28;20446;-74
2023/02/10 09:56:51;;;;;;;12.37;7.10;;;;;;;;;;5051925;28;20997;-73
2023/02/10 09:59:21;;;;;;;14.37;9.00;;;;;;;;;;5052144;28;20454;-73
2023/02/10 10:01:51;;;;;;;16.77;8.93;;;;;;;;;;5052200;28;20532;-74
2023/02/10 10:04:19;;;;;;;15.00;9.37;;;;;;;;;;5053411;28;20455;-74
2023/02/10 10:06:47;;;;;;;14.43;9.30;;;;;;;;;;5051269;28;20946;-74
2023/02/10 10:09:20;;;;;;;14.23;8.23;;;;;;;;;;5047589;28;20472;-74
2023/02/10 10:11:48;;;;;;;16.00;8.67;;;;;;;;;;5052064;28;20438;-74
2023/02/10 10:14:19;;;;;;;14.63;9.03;;;;;;;;;;5052132;28;20450;-74
2023/02/10 10:17:05;;;;;;;15.97;9.00;;;;;;;;;;5052228;28;20851;-75
2023/02/10 10:19:42;;;;;;;15.40;10.40;;;;;;;;;;5050754;28;20452;-75
2023/02/10 10:22:15;;;;;;;18.57;9.93;;;;;;;;;;5052474;28;20561;-74
2023/02/10 10:24:47;;;;;;;12.83;7.33;;;;;;;;;;5052298;28;20798;-75
2023/02/10 10:27:19;;;;;;;11.33;6.90;;;;;;;;;;5052670;28;20457;-75
2023/02/10 10:29:50;;;;;;;13.97;8.17;;;;;;;;;;5051944;28;20441;-75
2023/02/10 10:32:18;;;;;;;15.70;9.47;;;;;;;;;;5052263;28;20455;-75
2023/02/10 10:34:50;;;;;;;16.07;8.30;;;;;;;;;;5052325;28;20456;-75
2023/02/10 10:37:20;;;;;;;16.00;9.13;;;;;;;;;;5051920;28;20486;-75
2023/02/10 10:39:47;;;;;;;12.90;7.60;;;;;;;;;;5051070;28;20442;-75
2023/02/10 10:42:20;;;;;;;13.97;7.73;;;;;;;;;;5051999;28;20453;-75
2023/02/10 10:44:49;;;;;;;12.83;8.43;;;;;;;;;;5051960;28;20461;-75
2023/02/10 10:47:19;;;;;;;16.17;9.50;;;;;;;;;;5052626;28;20454;-76
2023/02/10 10:49:46;;;;;;;19.43;8.33;;;;;;;;;;5051760;28;20450;-72
2023/02/10 10:52:21;;;;;;;18.83;9.20;;;;;;;;;;5050569;28;20973;-74
2023/02/10 10:54:48;;;;;;;14.43;7.20;;;;;;;;;;5051165;28;20442;-73
2023/02/10 10:57:17;;;;;;;13.80;8.30;;;;;;;;;;5050825;28;22074;-73
2023/02/10 10:59:46;;;;;;;11.40;10.00;;;;;;;;;;5050511;28;20446;-75
2023/02/10 11:02:16;;;;;;;18.30;9.30;;;;;;;;;;5052025;28;20462;-73
2023/02/10 11:04:44;;;;;;;18.87;11.27;;;;;;;;;;5050472;28;20453;-74
2023/02/10 11:07:12;;;;;;;20.63;11.87;;;;;;;;;;5051199;28;20468;-73
2023/02/10 11:09:41;;;;;;;18.47;11.00;;;;;;;;;;5047236;28;20491;-72
2023/02/10 11:12:16;;;;;;;20.70;11.40;;;;;;;;;;5049222;28;20955;-71
2023/02/10 11:14:44;;;;;;;14.40;9.23;;;;;;;;;;5041327;28;20961;-73
2023/02/10 11:17:21;;;;;;;19.03;8.40;;;;;;;;;;5048555;28;20481;-72
2023/02/10 11:19:54;;;;;;;16.33;9.00;;;;;;;;;;5048888;28;21278;-73
2023/02/10 11:22:22;;;;;;;15.90;9.80;;;;;;;;;;5048752;28;20580;-72
2023/02/10 11:24:50;;;;;;;16.30;9.03;;;;;;;;;;5048995;28;20457;-73
2023/02/10 11:27:18;;;;;;;14.00;9.50;;;;;;;;;;5047112;28;20516;-75
2023/02/10 11:29:49;;;;;;;15.70;9.90;;;;;;;;;;5047744;28;20538;-74
2023/02/10 11:32:22;;;;;;;15.97;9.50;;;;;;;;;;5048370;28;20481;-73
2023/02/10 11:34:51;;;;;;;19.93;12.40;;;;;;;;;;5048309;28;20453;-74
2023/02/10 11:37:21;;;;;;;17.70;10.70;;;;;;;;;;5048262;28;20513;-73
2023/02/10 11:39:49;;;;;;;17.43;10.87;;;;;;;;;;5047732;28;20446;-73
2023/02/10 11:42:20;;;;;;;23.97;10.97;;;;;;;;;;5048952;28;20457;-73
2023/02/10 11:44:53;;;;;;;23.40;13.47;;;;;;;;;;5048048;28;20443;-72
2023/02/10 11:47:22;;;;;;;19.50;11.70;;;;;;;;;;5047807;28;20457;-73
2023/02/10 11:49:50;;;;;;;18.13;10.93;;;;;;;;;;5046835;28;20464;-74
2023/02/10 11:52:18;;;;;;;17.87;12.27;;;;;;;;;;5048793;28;20856;-73
2023/02/10 11:54:46;;;;;;;17.87;9.53;;;;;;;;;;5048184;28;20449;-74
2023/02/10 12:00:10;;;;;;;14.93;10.13;;;;;;;;;;5047464;28;20491;-73
2023/02/10 12:02:46;;;;;;;20.20;9.50;;;;;;;;;;5047371;28;20813;-74
2023/02/10 12:05:17;;;;;;;16.77;8.23;;;;;;;;;;5039224;28;20450;-74
2023/02/10 12:07:52;;;;;;;17.13;7.60;;;;;;;;;;5048113;28;20470;-74
2023/02/10 12:10:24;;;;;;;18.57;9.37;;;;;;;;;;5048276;28;20473;-74
2023/02/10 12:12:56;;;;;;;18.97;8.60;;;;;;;;;;5048242;28;20445;-74
2023/02/10 12:15:28;;;;;;;19.10;9.30;;;;;;;;;;5048848;28;20450;-73
2023/02/10 12:18:05;;;;;;;21.03;10.37;;;;;;;;;;5048552;28;20474;-75
2023/02/10 12:20:39;;;;;;;16.53;10.63;;;;;;;;;;5058273;28;20517;-73
2023/02/10 12:23:17;;;;;;;21.70;10.50;;;;;;;;;;5049035;28;20552;-74
2023/02/10 12:25:48;;;;;;;14.90;8.73;;;;;;;;;;5047635;28;20939;-74
2023/02/10 12:28:21;;;;;;;14.30;9.13;;;;;;;;;;5046420;28;20796;-74
2023/02/10 12:30:52;;;;;;;18.67;9.67;;;;;;;;;;5046750;28;20443;-74
2023/02/10 12:33:29;;;;;;;21.17;10.27;;;;;;;;;;5047923;28;20979;-75
2023/02/10 12:36:00;;;;;;;15.07;9.10;;;;;;;;;;5047422;28;20452;-75
2023/02/10 12:38:33;;;;;;;18.23;9.90;;;;;;;;;;5047628;28;20497;-74
2023/02/10 12:41:05;;;;;;;14.50;9.50;;;;;;;;;;5047647;28;20450;-74
2023/02/10 12:43:39;;;;;;;15.67;10.70;;;;;;;;;;5047609;28;20484;-74
2023/02/10 12:46:12;;;;;;;11.83;7.50;;;;;;;;;;5061057;28;20502;-71
2023/02/10 12:48:43;;;;;;;16.20;10.10;;;;;;;;;;5060991;28;20476;-69
2023/02/10 12:51:20;;;;;;;16.10;8.70;;;;;;;;;;5057994;28;20437;-74
2023/02/10 12:53:49;;;;;;;22.27;9.30;;;;;;;;;;5041491;28;20447;-75
2023/02/10 12:56:21;;;;;;;15.67;9.83;;;;;;;;;;5048194;28;20450;-74
2023/02/10 12:58:50;;;;;;;14.73;9.50;;;;;;;;;;5047524;28;20462;-72
2023/02/10 13:01:21;;;;;;;14.13;9.60;;;;;;;;;;5047050;28;20469;-75
2023/02/10 13:03:50;;;;;;;15.60;9.17;;;;;;;;;;5047482;28;20454;-74
2023/02/10 13:06:22;;;;;;;17.33;9.50;;;;;;;;;;5047436;28;20450;-75
2023/02/10 13:08:51;;;;;;;16.37;8.00;;;;;;;;;;5046945;28;20826;-74
2023/02/10 13:11:21;;;;;;;16.13;9.70;;;;;;;;;;5047546;28;20446;-75
2023/02/10 13:13:49;;;;;;;15.90;10.03;;;;;;;;;;5047573;28;20442;-74
2023/02/10 13:16:17;;;;;;;13.77;8.67;;;;;;;;;;5051892;28;20789;-75
2023/02/10 13:18:47;;;;;;;17.10;11.77;;;;;;;;;;5050079;28;20482;-73
2023/02/10 13:21:19;;;;;;;13.17;8.60;;;;;;;;;;5038525;28;20924;-75
2023/02/10 13:23:48;;;;;;;17.17;10.13;;;;;;;;;;5051515;28;20464;-75
2023/02/10 13:26:31;;;;;;;16.40;9.60;;;;;;;;;;5051862;28;20507;-74
2023/02/10 13:29:04;;;;;;;16.50;9.47;;;;;;;;;;5046689;28;20466;-75
2023/02/10 13:31:44;;;;;;;16.43;9.17;;;;;;;;;;5050995;28;20442;-73
2023/02/10 13:34:16;;;;;;;15.50;9.40;;;;;;;;;;5051088;28;20438;-75
2023/02/10 13:36:49;;;;;;;15.97;9.57;;;;;;;;;;5050825;28;20446;-74
2023/02/10 13:39:18;;;;;;;17.00;10.93;;;;;;;;;;5050798;28;20939;-74
2023/02/10 13:41:46;;;;;;;14.23;9.40;;;;;;;;;;5050754;28;20823;-75
2023/02/10 13:44:22;;;;;;;17.33;9.17;;;;;;;;;;5051242;28;20442;-75
2023/02/10 13:46:52;;;;;;;14.17;8.23;;;;;;;;;;5050141;28;20464;-74
2023/02/10 13:49:20;;;;;;;17.83;9.10;;;;;;;;;;5050673;28;20443;-74
2023/02/10 13:51:49;;;;;;;14.77;9.40;;;;;;;;;;5050098;28;20454;-74
2023/02/10 13:54:26;;;;;;;16.20;8.90;;;;;;;;;;5050350;28;20450;-75
2023/02/10 13:56:54;;;;;;;21.73;9.87;;;;;;;;;;5049671;28;20949;-68
2023/02/10 13:59:26;;;;;;;14.00;8.93;;;;;;;;;;5050169;28;20453;-70
2023/02/10 14:02:03;;;;;;;18.30;9.60;;;;;;;;;;5049575;28;20434;-67
2023/02/10 14:04:39;;;;;;;15.23;9.37;;;;;;;;;;5049921;28;20438;-75
2023/02/10 14:07:16;;;;;;;14.43;8.53;;;;;;;;;;5054352;28;20469;-76
2023/02/10 14:09:43;;;;;;;15.73;8.50;;;;;;;;;;5048883;28;20473;-73
2023/02/10 14:12:25;;;;;;;17.53;10.27;;;;;;;;;;5054297;28;20447;-74
2023/02/10 14:14:52;;;;;;;15.53;10.10;;;;;;;;;;5048248;28;20446;-75
2023/02/10 14:17:24;;;;;;;13.93;8.67;;;;;;;;;;5049668;28;20482;-75
2023/02/10 14:19:52;;;;;;;14.23;8.70;;;;;;;;;;5045737;28;20446;-75
2023/02/10 14:22:24;;;;;;;12.27;8.90;;;;;;;;;;5050125;28;20445;-74
2023/02/10 14:24:53;;;;;;;18.10;8.73;;;;;;;;;;5049375;28;20783;-75
2023/02/10 14:27:21;;;;;;;17.20;9.10;;;;;;;;;;5048608;28;20641;-74
2023/02/10 14:29:49;;;;;;;14.30;7.87;;;;;;;;;;5048452;28;20461;-75
2023/02/10 14:32:18;;;;;;;16.70;8.03;;;;;;;;;;5052455;28;20974;-73
2023/02/10 14:34:54;;;;;;;11.57;7.10;;;;;;;;;;5049548;28;20451;-76
2023/02/10 14:37:22;;;;;;;17.77;8.97;;;;;;;;;;5050413;28;20500;-73
2023/02/10 14:39:54;;;;;;;18.53;9.70;;;;;;;;;;5049166;28;20446;-74
2023/02/10 14:42:22;;;;;;;13.10;7.83;;;;;;;;;;5049247;28;20977;-74
2023/02/10 14:44:50;;;;;;;16.00;8.47;;;;;;;;;;5049725;28;20455;-74
2023/02/10 14:47:18;;;;;;;12.17;8.10;;;;;;;;;;5047363;28;20454;-76
2023/02/10 14:49:49;;;;;;;14.90;8.37;;;;;;;;;;5049466;28;20943;-75
2023/02/10 14:52:23;;;;;;;13.17;7.70;;;;;;;;;;5051719;28;20973;-76